sensor_id;sensor_type;location;lat;lon;timestamp;pressure;altitude;pressure_sealevel;temperature;humidity
62976;BME280;49071;0.000;0.000;2022-11-13T06:58:05;102305.25;;;16.77;51.20
62976;BME280;49071;0.000;0.000;2022-11-13T07:04:06;102299.66;;;16.81;51.10
62976;BME280;49071;0.000;0.000;2022-11-13T07:07:08;102296.00;;;16.88;50.91
62976;BME280;49071;0.000;0.000;2022-11-13T07:10:08;102294.25;;;17.01;50.63
62976;BME280;49071;0.000;0.000;2022-11-13T07:13:09;102295.16;;;17.25;50.23
62976;BME280;49071;0.000;0.000;2022-11-13T07:16:09;102296.09;;;17.45;49.63
62976;BME280;49071;0.000;0.000;2022-11-13T07:19:10;102294.59;;;17.68;49.34
62976;BME280;49071;0.000;0.000;2022-11-13T07:22:10;102295.91;;;17.90;48.91
62976;BME280;49071;0.000;0.000;2022-11-13T07:25:10;102289.84;;;18.19;48.36
62976;BME280;49071;0.000;0.000;2022-11-13T07:28:10;102292.63;;;18.43;47.87
62976;BME280;49071;0.000;0.000;2022-11-13T07:31:11;102287.94;;;18.60;47.76
62976;BME280;49071;0.000;0.000;2022-11-13T07:34:12;102288.91;;;18.73;47.44
62976;BME280;49071;0.000;0.000;2022-11-13T07:37:13;102285.28;;;18.76;47.39
62976;BME280;49071;0.000;0.000;2022-11-13T07:40:14;102285.66;;;18.74;47.46
62976;BME280;49071;0.000;0.000;2022-11-13T07:43:14;102289.31;;;18.71;47.52
62976;BME280;49071;0.000;0.000;2022-11-13T07:46:14;102289.28;;;18.75;47.56
62976;BME280;49071;0.000;0.000;2022-11-13T07:49:14;102292.63;;;18.66;47.55
62976;BME280;49071;0.000;0.000;2022-11-13T07:52:15;102297.56;;;18.59;47.80
62976;BME280;49071;0.000;0.000;2022-11-13T07:55:15;102302.06;;;18.52;48.02
62976;BME280;49071;0.000;0.000;2022-11-13T07:58:15;102292.59;;;18.46;48.11
62976;BME280;49071;0.000;0.000;2022-11-13T08:01:16;102290.28;;;18.41;48.14
62976;BME280;49071;0.000;0.000;2022-11-13T08:04:16;102290.63;;;18.43;48.13
62976;BME280;49071;0.000;0.000;2022-11-13T08:07:16;102287.00;;;18.46;48.11
62976;BME280;49071;0.000;0.000;2022-11-13T08:10:17;102287.28;;;18.52;48.06
62976;BME280;49071;0.000;0.000;2022-11-13T08:13:18;102275.47;;;18.64;47.96
62976;BME280;49071;0.000;0.000;2022-11-13T08:16:18;102279.34;;;18.70;47.81
62976;BME280;49071;0.000;0.000;2022-11-13T08:19:18;102279.81;;;18.89;47.49
62976;BME280;49071;0.000;0.000;2022-11-13T08:22:19;102277.19;;;19.02;47.17
62976;BME280;49071;0.000;0.000;2022-11-13T08:25:19;102280.03;;;19.18;47.01
62976;BME280;49071;0.000;0.000;2022-11-13T08:28:19;102277.72;;;19.13;47.13
62976;BME280;49071;0.000;0.000;2022-11-13T08:31:19;102274.66;;;19.07;47.16
62976;BME280;49071;0.000;0.000;2022-11-13T08:34:20;102280.75;;;19.02;47.14
62976;BME280;49071;0.000;0.000;2022-11-13T08:37:20;102275.66;;;18.97;47.33
62976;BME280;49071;0.000;0.000;2022-11-13T08:40:20;102281.78;;;18.92;47.74
62976;BME280;49071;0.000;0.000;2022-11-13T08:43:20;102278.25;;;18.88;47.69
62976;BME280;49071;0.000;0.000;2022-11-13T08:46:20;102283.53;;;18.82;47.90
62976;BME280;49071;0.000;0.000;2022-11-13T08:49:21;102282.34;;;18.83;48.06
62976;BME280;49071;0.000;0.000;2022-11-13T08:52:21;102284.22;;;18.90;47.92
62976;BME280;49071;0.000;0.000;2022-11-13T08:55:21;102278.81;;;18.99;47.86
62976;BME280;49071;0.000;0.000;2022-11-13T08:58:22;102280.88;;;19.15;47.42
62976;BME280;49071;0.000;0.000;2022-11-13T09:01:22;102266.84;;;19.35;47.02
62976;BME280;49071;0.000;0.000;2022-11-13T09:04:23;102276.97;;;19.49;46.75
62976;BME280;49071;0.000;0.000;2022-11-13T09:07:24;102278.88;;;19.72;46.09
62976;BME280;49071;0.000;0.000;2022-11-13T09:10:25;102283.53;;;19.78;46.32
62976;BME280;49071;0.000;0.000;2022-11-13T09:13:25;102287.41;;;19.85;46.32
62976;BME280;49071;0.000;0.000;2022-11-13T09:16:26;102281.25;;;19.73;46.50
62976;BME280;49071;0.000;0.000;2022-11-13T09:19:26;102278.72;;;19.79;46.28
62976;BME280;49071;0.000;0.000;2022-11-13T09:22:26;102277.28;;;19.71;46.39
62976;BME280;49071;0.000;0.000;2022-11-13T09:25:27;102275.41;;;19.64;46.50
62976;BME280;49071;0.000;0.000;2022-11-13T09:28:28;102279.50;;;19.59;46.49
62976;BME280;49071;0.000;0.000;2022-11-13T09:31:28;102276.19;;;19.48;46.76
62976;BME280;49071;0.000;0.000;2022-11-13T09:34:28;102273.59;;;19.37;47.09
62976;BME280;49071;0.000;0.000;2022-11-13T09:37:29;102260.72;;;19.40;46.85
62976;BME280;49071;0.000;0.000;2022-11-13T09:43:48;102270.94;;;19.50;46.88
62976;BME280;49071;0.000;0.000;2022-11-13T09:46:50;102271.97;;;19.56;46.75
62976;BME280;49071;0.000;0.000;2022-11-13T09:49:54;102265.16;;;19.57;46.73
62976;BME280;49071;0.000;0.000;2022-11-13T09:52:56;102271.72;;;19.51;46.91
62976;BME280;49071;0.000;0.000;2022-11-13T09:56:00;102268.56;;;19.49;47.07
62976;BME280;49071;0.000;0.000;2022-11-13T10:02:20;102263.69;;;19.33;47.34
62976;BME280;49071;0.000;0.000;2022-11-13T10:08:29;102263.50;;;19.24;47.55
62976;BME280;49071;0.000;0.000;2022-11-13T10:11:36;102253.50;;;19.23;47.84
62976;BME280;49071;0.000;0.000;2022-11-13T10:14:44;102244.28;;;19.42;47.55
62976;BME280;49071;0.000;0.000;2022-11-13T10:17:57;102250.69;;;19.59;47.16
62976;BME280;49071;0.000;0.000;2022-11-13T10:21:05;102256.38;;;19.75;46.98
62976;BME280;49071;0.000;0.000;2022-11-13T10:24:27;102251.63;;;20.05;46.55
62976;BME280;49071;0.000;0.000;2022-11-13T10:27:27;102247.72;;;20.32;46.04
62976;BME280;49071;0.000;0.000;2022-11-13T10:30:28;102253.09;;;20.59;45.59
62976;BME280;49071;0.000;0.000;2022-11-13T10:33:28;102247.75;;;20.77;45.53
62976;BME280;49071;0.000;0.000;2022-11-13T10:39:44;102236.34;;;20.68;45.76
62976;BME280;49071;0.000;0.000;2022-11-13T10:42:44;102234.28;;;20.56;46.36
62976;BME280;49071;0.000;0.000;2022-11-13T10:45:55;102239.50;;;20.70;46.20
62976;BME280;49071;0.000;0.000;2022-11-13T10:48:56;102230.53;;;20.75;46.13
62976;BME280;49071;0.000;0.000;2022-11-13T10:51:57;102225.81;;;20.72;46.10
62976;BME280;49071;0.000;0.000;2022-11-13T10:58:15;102223.16;;;20.52;46.38
62976;BME280;49071;0.000;0.000;2022-11-13T11:01:20;102218.06;;;20.47;46.35
62976;BME280;49071;0.000;0.000;2022-11-13T11:04:22;102223.78;;;20.43;46.21
62976;BME280;49071;0.000;0.000;2022-11-13T11:07:23;102217.22;;;20.34;46.55
62976;BME280;49071;0.000;0.000;2022-11-13T11:13:30;102216.44;;;20.33;46.75
62976;BME280;49071;0.000;0.000;2022-11-13T11:16:30;102219.88;;;20.24;46.71
62976;BME280;49071;0.000;0.000;2022-11-13T11:19:31;102213.59;;;20.20;46.67
62976;BME280;49071;0.000;0.000;2022-11-13T11:22:35;102211.19;;;20.19;46.85
62976;BME280;49071;0.000;0.000;2022-11-13T11:25:39;102207.69;;;20.15;47.12
62976;BME280;49071;0.000;0.000;2022-11-13T11:28:48;102208.22;;;20.10;47.05
62976;BME280;49071;0.000;0.000;2022-11-13T11:31:55;102196.34;;;20.06;47.10
62976;BME280;49071;0.000;0.000;2022-11-13T11:38:31;102189.78;;;19.96;47.56
62976;BME280;49071;0.000;0.000;2022-11-13T11:41:39;102183.88;;;19.90;47.52
62976;BME280;49071;0.000;0.000;2022-11-13T11:44:45;102176.00;;;19.85;47.64
62976;BME280;49071;0.000;0.000;2022-11-13T11:47:47;102178.91;;;19.81;47.66
62976;BME280;49071;0.000;0.000;2022-11-13T11:50:49;102172.06;;;19.82;47.93
62976;BME280;49071;0.000;0.000;2022-11-13T11:53:56;102168.72;;;19.88;47.76
62976;BME280;49071;0.000;0.000;2022-11-13T11:57:00;102175.09;;;20.04;47.66
62976;BME280;49071;0.000;0.000;2022-11-13T12:00:04;102162.06;;;20.27;47.27
62976;BME280;49071;0.000;0.000;2022-11-13T12:09:32;102151.91;;;20.75;48.18
62976;BME280;49071;0.000;0.000;2022-11-13T12:12:45;102154.06;;;20.84;47.46
62976;BME280;49071;0.000;0.000;2022-11-13T12:16:12;102145.53;;;20.75;47.72
62976;BME280;49071;0.000;0.000;2022-11-13T12:19:20;102137.69;;;20.53;47.63
62976;BME280;49071;0.000;0.000;2022-11-13T12:22:40;102136.78;;;20.43;47.97
62976;BME280;49071;0.000;0.000;2022-11-13T12:28:54;102130.78;;;20.29;47.78
62976;BME280;49071;0.000;0.000;2022-11-13T12:32:08;102131.88;;;20.18;47.80
62976;BME280;49071;0.000;0.000;2022-11-13T12:35:22;102128.81;;;20.13;47.89
62976;BME280;49071;0.000;0.000;2022-11-13T12:44:27;102134.50;;;20.38;48.21
62976;BME280;49071;0.000;0.000;2022-11-13T12:47:28;102123.97;;;20.42;48.51
62976;BME280;49071;0.000;0.000;2022-11-13T12:50:29;102120.47;;;20.38;48.53
62976;BME280;49071;0.000;0.000;2022-11-13T12:53:41;102110.69;;;20.30;48.32
62976;BME280;49071;0.000;0.000;2022-11-13T12:56:42;102112.03;;;20.25;48.72
62976;BME280;49071;0.000;0.000;2022-11-13T13:06:22;102101.63;;;20.39;49.33
62976;BME280;49071;0.000;0.000;2022-11-13T13:15:52;102096.34;;;20.41;49.99
62976;BME280;49071;0.000;0.000;2022-11-13T13:22:29;102083.78;;;20.03;50.37
62976;BME280;49071;0.000;0.000;2022-11-13T13:25:33;102085.84;;;19.87;50.49
62976;BME280;49071;0.000;0.000;2022-11-13T13:28:36;102087.00;;;19.73;50.33
62976;BME280;49071;0.000;0.000;2022-11-13T13:31:43;102079.19;;;19.64;50.29
62976;BME280;49071;0.000;0.000;2022-11-13T13:44:11;102065.56;;;19.33;50.43
62976;BME280;49071;0.000;0.000;2022-11-13T13:47:19;102068.91;;;19.28;50.66
62976;BME280;49071;0.000;0.000;2022-11-13T13:50:23;102075.00;;;19.23;50.35
62976;BME280;49071;0.000;0.000;2022-11-13T13:53:25;102071.19;;;19.17;50.46
62976;BME280;49071;0.000;0.000;2022-11-13T13:56:26;102081.66;;;19.13;50.46
62976;BME280;49071;0.000;0.000;2022-11-13T13:59:28;102075.81;;;19.07;50.46
62976;BME280;49071;0.000;0.000;2022-11-13T14:02:29;102071.88;;;19.05;50.55
62976;BME280;49071;0.000;0.000;2022-11-13T14:05:33;102076.41;;;18.98;50.39
62976;BME280;49071;0.000;0.000;2022-11-13T14:08:34;102076.84;;;18.97;50.53
62976;BME280;49071;0.000;0.000;2022-11-13T14:11:34;102070.38;;;19.00;50.53
62976;BME280;49071;0.000;0.000;2022-11-13T14:14:37;102071.78;;;19.08;50.46
62976;BME280;49071;0.000;0.000;2022-11-13T14:17:38;102066.28;;;19.21;50.11
62976;BME280;49071;0.000;0.000;2022-11-13T14:20:48;102069.16;;;19.34;49.81
62976;BME280;49071;0.000;0.000;2022-11-13T14:23:50;102071.97;;;19.50;49.45
62976;BME280;49071;0.000;0.000;2022-11-13T14:26:51;102064.31;;;19.67;49.02
62976;BME280;49071;0.000;0.000;2022-11-13T14:30:00;102067.91;;;19.84;48.84
62976;BME280;49071;0.000;0.000;2022-11-13T14:33:00;102073.63;;;19.93;48.44
62976;BME280;49071;0.000;0.000;2022-11-13T14:36:01;102068.53;;;20.04;48.27
62976;BME280;49071;0.000;0.000;2022-11-13T14:39:02;102062.16;;;20.17;48.17
62976;BME280;49071;0.000;0.000;2022-11-13T14:42:03;102058.19;;;20.43;47.61
62976;BME280;49071;0.000;0.000;2022-11-13T14:51:37;102054.63;;;20.56;47.18
62976;BME280;49071;0.000;0.000;2022-11-13T14:54:38;102049.56;;;20.51;47.14
62976;BME280;49071;0.000;0.000;2022-11-13T14:57:45;102051.69;;;20.46;47.46
62976;BME280;49071;0.000;0.000;2022-11-13T15:00:46;102055.50;;;20.40;47.22
62976;BME280;49071;0.000;0.000;2022-11-13T15:03:46;102047.28;;;20.33;47.55
62976;BME280;49071;0.000;0.000;2022-11-13T15:06:48;102052.31;;;20.25;47.62
62976;BME280;49071;0.000;0.000;2022-11-13T15:09:49;102046.56;;;20.16;47.92
62976;BME280;49071;0.000;0.000;2022-11-13T15:12:50;102053.59;;;20.08;47.92
62976;BME280;49071;0.000;0.000;2022-11-13T15:15:50;102053.38;;;20.02;48.13
62976;BME280;49071;0.000;0.000;2022-11-13T15:18:56;102002.91;;;19.73;48.07
62976;BME280;49071;0.000;0.000;2022-11-13T15:21:58;102043.47;;;19.97;48.05
62976;BME280;49071;0.000;0.000;2022-11-13T15:24:58;102044.03;;;19.92;48.15
62976;BME280;49071;0.000;0.000;2022-11-13T15:27:58;102049.75;;;19.89;48.36
62976;BME280;49071;0.000;0.000;2022-11-13T15:30:58;102046.59;;;19.87;48.37
62976;BME280;49071;0.000;0.000;2022-11-13T15:33:59;102045.16;;;19.95;48.31
62976;BME280;49071;0.000;0.000;2022-11-13T15:36:59;102040.81;;;20.07;48.16
62976;BME280;49071;0.000;0.000;2022-11-13T15:39:59;102043.44;;;20.27;47.71
62976;BME280;49071;0.000;0.000;2022-11-13T15:43:00;102042.59;;;20.42;47.41
62976;BME280;49071;0.000;0.000;2022-11-13T15:46:00;102049.63;;;20.63;47.25
62976;BME280;49071;0.000;0.000;2022-11-13T15:49:00;102046.13;;;20.72;47.06
62976;BME280;49071;0.000;0.000;2022-11-13T15:52:01;102045.56;;;20.77;47.03
62976;BME280;49071;0.000;0.000;2022-11-13T15:55:02;102048.03;;;20.75;47.09
62976;BME280;49071;0.000;0.000;2022-11-13T15:58:02;102037.81;;;20.69;47.13
62976;BME280;49071;0.000;0.000;2022-11-13T16:01:03;102042.63;;;20.68;47.27
62976;BME280;49071;0.000;0.000;2022-11-13T16:04:03;102047.72;;;20.73;46.98
62976;BME280;49071;0.000;0.000;2022-11-13T16:07:05;102047.25;;;20.62;47.35
62976;BME280;49071;0.000;0.000;2022-11-13T16:10:10;102035.84;;;20.53;47.77
62976;BME280;49071;0.000;0.000;2022-11-13T16:13:10;102036.50;;;20.44;47.84
62976;BME280;49071;0.000;0.000;2022-11-13T16:16:21;102039.53;;;20.37;47.88
62976;BME280;49071;0.000;0.000;2022-11-13T16:19:23;102037.41;;;20.28;47.96
62976;BME280;49071;0.000;0.000;2022-11-13T16:22:25;102032.44;;;20.19;48.03
62976;BME280;49071;0.000;0.000;2022-11-13T16:25:25;102034.81;;;20.21;47.98
62976;BME280;49071;0.000;0.000;2022-11-13T16:28:26;102034.81;;;20.21;48.07
62976;BME280;49071;0.000;0.000;2022-11-13T16:31:26;102028.50;;;20.17;48.06
62976;BME280;49071;0.000;0.000;2022-11-13T16:34:26;102031.44;;;20.13;48.06
62976;BME280;49071;0.000;0.000;2022-11-13T16:37:26;102025.13;;;20.09;48.27
62976;BME280;49071;0.000;0.000;2022-11-13T16:40:27;102040.03;;;20.06;48.22
62976;BME280;49071;0.000;0.000;2022-11-13T16:43:28;102025.44;;;19.98;48.53
62976;BME280;49071;0.000;0.000;2022-11-13T16:46:29;102025.97;;;19.93;48.60
62976;BME280;49071;0.000;0.000;2022-11-13T16:49:30;102033.34;;;19.87;48.75
62976;BME280;49071;0.000;0.000;2022-11-13T16:52:30;102022.13;;;19.87;48.74
62976;BME280;49071;0.000;0.000;2022-11-13T16:55:31;102018.63;;;19.83;48.84
62976;BME280;49071;0.000;0.000;2022-11-13T16:58:33;102023.13;;;19.80;48.91
62976;BME280;49071;0.000;0.000;2022-11-13T17:01:34;102028.03;;;19.76;49.08
62976;BME280;49071;0.000;0.000;2022-11-13T17:04:34;102018.66;;;19.67;49.21
62976;BME280;49071;0.000;0.000;2022-11-13T17:07:34;102008.16;;;19.54;49.07
62976;BME280;49071;0.000;0.000;2022-11-13T17:10:34;102013.25;;;19.59;49.40
62976;BME280;49071;0.000;0.000;2022-11-13T17:13:34;102009.22;;;19.60;49.18
62976;BME280;49071;0.000;0.000;2022-11-13T17:16:35;102010.97;;;19.54;49.32
62976;BME280;49071;0.000;0.000;2022-11-13T17:19:35;102000.75;;;19.48;49.39
62976;BME280;49071;0.000;0.000;2022-11-13T17:22:39;102000.56;;;19.55;49.77
62976;BME280;49071;0.000;0.000;2022-11-13T17:25:46;102001.06;;;19.66;49.94
62976;BME280;49071;0.000;0.000;2022-11-13T17:28:47;102005.88;;;19.66;50.15
62976;BME280;49071;0.000;0.000;2022-11-13T17:31:47;102011.59;;;19.62;50.36
62976;BME280;49071;0.000;0.000;2022-11-13T17:34:47;102004.69;;;19.50;50.50
62976;BME280;49071;0.000;0.000;2022-11-13T17:37:47;102005.44;;;19.67;50.60
62976;BME280;49071;0.000;0.000;2022-11-13T17:40:48;102016.31;;;19.65;50.64
62976;BME280;49071;0.000;0.000;2022-11-13T17:43:48;102020.44;;;19.60;50.30
62976;BME280;49071;0.000;0.000;2022-11-13T17:46:48;102017.59;;;19.48;50.27
62976;BME280;49071;0.000;0.000;2022-11-13T17:49:49;102005.44;;;19.38;50.36
62976;BME280;49071;0.000;0.000;2022-11-13T17:52:49;102005.16;;;19.32;50.66
62976;BME280;49071;0.000;0.000;2022-11-13T17:56:08;102008.06;;;19.29;50.61
62976;BME280;49071;0.000;0.000;2022-11-13T17:59:09;102006.94;;;19.26;50.44
62976;BME280;49071;0.000;0.000;2022-11-13T18:02:10;102006.66;;;19.21;50.20
62976;BME280;49071;0.000;0.000;2022-11-13T18:05:10;101999.13;;;19.17;50.34
62976;BME280;49071;0.000;0.000;2022-11-13T18:08:11;102000.81;;;19.15;50.49
62976;BME280;49071;0.000;0.000;2022-11-13T18:11:12;102005.63;;;19.14;50.54
62976;BME280;49071;0.000;0.000;2022-11-13T18:14:14;102006.81;;;19.13;50.33
62976;BME280;49071;0.000;0.000;2022-11-13T18:17:14;102011.66;;;19.13;50.46
62976;BME280;49071;0.000;0.000;2022-11-13T18:20:15;102010.50;;;19.10;50.52
62976;BME280;49071;0.000;0.000;2022-11-13T18:23:15;102008.84;;;19.13;50.52
62976;BME280;49071;0.000;0.000;2022-11-13T18:26:16;102013.84;;;19.22;50.30
62976;BME280;49071;0.000;0.000;2022-11-13T18:29:17;102009.44;;;19.37;49.96
62976;BME280;49071;0.000;0.000;2022-11-13T18:32:17;102009.16;;;19.48;49.59
62976;BME280;49071;0.000;0.000;2022-11-13T18:35:17;102001.78;;;19.70;49.32
62976;BME280;49071;0.000;0.000;2022-11-13T18:38:17;102005.88;;;19.82;49.04
62976;BME280;49071;0.000;0.000;2022-11-13T18:41:19;102001.13;;;20.21;48.14
62976;BME280;49071;0.000;0.000;2022-11-13T18:44:20;101990.81;;;20.43;47.71
62976;BME280;49071;0.000;0.000;2022-11-13T18:47:20;101978.94;;;20.52;47.58
62976;BME280;49071;0.000;0.000;2022-11-13T18:50:20;101986.59;;;20.64;47.44
62976;BME280;49071;0.000;0.000;2022-11-13T18:53:22;101984.47;;;20.69;47.24
62976;BME280;49071;0.000;0.000;2022-11-13T18:56:23;101983.78;;;20.64;47.10
62976;BME280;49071;0.000;0.000;2022-11-13T18:59:24;101977.50;;;20.60;47.21
62976;BME280;49071;0.000;0.000;2022-11-13T19:02:24;101976.84;;;20.56;47.62
62976;BME280;49071;0.000;0.000;2022-11-13T19:05:24;101966.69;;;20.33;47.88
62976;BME280;49071;0.000;0.000;2022-11-13T19:08:25;101961.66;;;20.28;47.93
62976;BME280;49071;0.000;0.000;2022-11-13T19:11:25;101951.88;;;20.20;47.99
62976;BME280;49071;0.000;0.000;2022-11-13T19:14:26;101953.31;;;20.24;48.06
62976;BME280;49071;0.000;0.000;2022-11-13T19:17:26;101955.47;;;20.20;48.11
62976;BME280;49071;0.000;0.000;2022-11-13T19:20:26;101960.41;;;20.16;48.06
62976;BME280;49071;0.000;0.000;2022-11-13T19:23:27;101951.06;;;20.07;48.33
62976;BME280;49071;0.000;0.000;2022-11-13T19:26:27;101949.72;;;19.98;48.47
62976;BME280;49071;0.000;0.000;2022-11-13T19:29:27;101944.31;;;19.91;48.39
62976;BME280;49071;0.000;0.000;2022-11-13T19:32:28;101947.22;;;19.88;48.47
62976;BME280;49071;0.000;0.000;2022-11-13T19:35:28;101952.47;;;19.86;48.44
62976;BME280;49071;0.000;0.000;2022-11-13T19:38:28;101945.66;;;19.87;48.50
62976;BME280;49071;0.000;0.000;2022-11-13T19:41:28;101949.81;;;19.95;48.52
62976;BME280;49071;0.000;0.000;2022-11-13T19:44:29;101941.31;;;19.98;48.44
62976;BME280;49071;0.000;0.000;2022-11-13T19:47:29;101934.88;;;19.98;48.30
62976;BME280;49071;0.000;0.000;2022-11-13T19:50:29;101937.69;;;19.98;48.23
62976;BME280;49071;0.000;0.000;2022-11-13T19:53:30;101939.06;;;20.06;48.17
62976;BME280;49071;0.000;0.000;2022-11-13T19:56:30;101945.56;;;20.03;48.05
62976;BME280;49071;0.000;0.000;2022-11-13T19:59:30;101950.38;;;20.02;48.20
62976;BME280;49071;0.000;0.000;2022-11-13T20:02:31;101950.94;;;19.97;48.22
62976;BME280;49071;0.000;0.000;2022-11-13T20:05:31;101946.91;;;19.98;48.15
62976;BME280;49071;0.000;0.000;2022-11-13T20:08:32;101944.19;;;19.95;48.26
62976;BME280;49071;0.000;0.000;2022-11-13T20:11:32;101953.50;;;19.92;48.38
62976;BME280;49071;0.000;0.000;2022-11-13T20:14:33;101937.25;;;19.87;48.43
62976;BME280;49071;0.000;0.000;2022-11-13T20:17:33;101937.09;;;19.77;48.62
62976;BME280;49071;0.000;0.000;2022-11-13T20:20:33;101932.72;;;19.76;48.74
62976;BME280;49071;0.000;0.000;2022-11-13T20:23:34;101935.97;;;19.75;48.52
62976;BME280;49071;0.000;0.000;2022-11-13T20:26:34;101934.38;;;19.74;48.60
62976;BME280;49071;0.000;0.000;2022-11-13T20:29:34;101945.72;;;19.70;48.92
62976;BME280;49071;0.000;0.000;2022-11-13T20:32:35;101948.25;;;19.65;48.79
62976;BME280;49071;0.000;0.000;2022-11-13T20:35:35;101943.63;;;19.58;49.14
62976;BME280;49071;0.000;0.000;2022-11-13T20:38:36;101953.25;;;19.57;49.13
62976;BME280;49071;0.000;0.000;2022-11-13T20:41:36;101953.16;;;19.60;48.97
62976;BME280;49071;0.000;0.000;2022-11-13T20:44:36;101946.53;;;19.54;49.05
62976;BME280;49071;0.000;0.000;2022-11-13T20:47:37;101939.69;;;19.55;49.26
62976;BME280;49071;0.000;0.000;2022-11-13T20:50:37;101932.97;;;19.53;49.46
62976;BME280;49071;0.000;0.000;2022-11-13T20:53:37;101942.34;;;19.46;49.44
62976;BME280;49071;0.000;0.000;2022-11-13T20:56:38;101936.94;;;19.39;49.35
62976;BME280;49071;0.000;0.000;2022-11-13T20:59:38;101925.50;;;19.33;49.64
